createdAt,value
2022-08-28T00:00:43.323Z,24.45
2022-08-28T00:03:12.688Z,24.45
2022-08-28T00:05:43.164Z,24.42
2022-08-28T00:08:13.892Z,24.43
2022-08-28T00:10:42.108Z,24.46
2022-08-28T00:13:11.544Z,24.48
2022-08-28T00:15:38.671Z,24.46
2022-08-28T00:18:07.759Z,24.48
2022-08-28T00:20:35.987Z,24.52
2022-08-28T00:23:05.313Z,24.51
2022-08-28T00:25:36.658Z,24.51
2022-08-28T00:28:09.233Z,24.52
2022-08-28T00:31:01.935Z,24.48
2022-08-28T00:33:33.567Z,24.53
2022-08-28T00:36:01.824Z,24.48
2022-08-28T00:38:30.438Z,24.52
2022-08-28T00:41:03.870Z,24.49
2022-08-28T00:43:38.704Z,24.49
2022-08-28T00:46:11.387Z,24.51
2022-08-28T00:48:38.908Z,24.49
2022-08-28T00:51:07.137Z,24.49
2022-08-28T00:53:35.559Z,24.48
2022-08-28T00:56:12.899Z,24.49
2022-08-28T00:58:44.683Z,24.48
2022-08-28T01:01:14.602Z,24.48
2022-08-28T01:03:42.428Z,24.49
2022-08-28T01:06:09.711Z,24.46
2022-08-28T01:08:40.998Z,24.46
2022-08-28T01:11:11.576Z,24.42
2022-08-28T01:13:42.996Z,24.38
2022-08-28T01:16:11.000Z,24.28
2022-08-28T01:18:38.236Z,24.24
2022-08-28T01:21:20.121Z,24.22
2022-08-28T01:23:56.370Z,24.15
2022-08-28T01:26:24.721Z,24.09
2022-08-28T01:28:52.387Z,24.08
2022-08-28T01:31:20.650Z,24.04
2022-08-28T01:33:48.564Z,24.04
2022-08-28T01:36:17.069Z,24.04
2022-08-28T01:38:49.632Z,24.01
2022-08-28T01:41:18.530Z,24.02
2022-08-28T01:43:45.593Z,24.02
2022-08-28T01:46:12.874Z,24.05
2022-08-28T01:48:42.862Z,24.07
2022-08-28T01:51:12.077Z,24.07
2022-08-28T01:53:40.037Z,24.04
2022-08-28T01:56:14.473Z,24.05
2022-08-28T01:58:43.311Z,24.01
2022-08-28T02:01:12.200Z,24.01
2022-08-28T02:03:39.997Z,24.02
2022-08-28T02:06:25.180Z,24.04
2022-08-28T02:09:05.638Z,23.97
2022-08-28T02:11:32.780Z,23.94
2022-08-28T02:14:02.253Z,23.93
2022-08-28T02:16:29.626Z,23.93
2022-08-28T02:18:57.276Z,23.88
2022-08-28T02:21:24.670Z,23.87
2022-08-28T02:23:51.669Z,23.87
2022-08-28T02:26:19.656Z,23.87
2022-08-28T02:28:47.176Z,23.84
2022-08-28T02:31:15.766Z,23.82
2022-08-28T02:33:44.803Z,23.85
2022-08-28T02:36:14.384Z,23.81
2022-08-28T02:38:41.800Z,23.82
2022-08-28T02:41:09.368Z,23.78
2022-08-28T02:43:39.052Z,23.77
2022-08-28T02:46:06.827Z,23.77
2022-08-28T02:48:38.586Z,23.74
2022-08-28T02:51:10.584Z,23.73
2022-08-28T02:53:37.782Z,23.68
2022-08-28T02:56:06.188Z,23.67
2022-08-28T02:58:34.092Z,23.61
2022-08-28T03:03:55.961Z,23.60
2022-08-28T03:06:23.326Z,23.60
2022-08-28T03:08:50.348Z,23.57
2022-08-28T03:11:17.436Z,23.54
2022-08-28T03:13:44.311Z,23.51
2022-08-28T03:16:11.847Z,23.53
2022-08-28T03:18:39.725Z,23.51
2022-08-28T03:21:09.637Z,23.50
2022-08-28T03:23:37.747Z,23.50
2022-08-28T03:26:08.460Z,23.50
2022-08-28T03:28:38.781Z,23.49
2022-08-28T03:31:06.920Z,23.47
2022-08-28T03:33:34.868Z,23.49
2022-08-28T03:36:04.650Z,23.43
2022-08-28T03:38:33.313Z,23.40
2022-08-28T03:41:00.494Z,23.39
2022-08-28T03:43:28.731Z,23.36
2022-08-28T03:45:58.966Z,23.33
2022-08-28T03:48:28.778Z,23.26
2022-08-28T03:50:56.129Z,23.24
2022-08-28T03:53:26.197Z,23.24
2022-08-28T03:55:55.888Z,23.19
2022-08-28T03:58:24.473Z,23.20
2022-08-28T04:00:51.628Z,23.19
2022-08-28T04:03:19.757Z,23.17
2022-08-28T04:05:47.729Z,23.16
2022-08-28T04:08:17.053Z,23.19
2022-08-28T04:10:45.291Z,23.20
2022-08-28T04:13:16.357Z,23.20
2022-08-28T04:15:43.659Z,23.17
2022-08-28T04:18:12.041Z,23.16
2022-08-28T04:20:39.415Z,23.16
2022-08-28T04:23:06.372Z,23.13
2022-08-28T04:25:33.361Z,23.16
2022-08-28T04:28:00.408Z,23.17
2022-08-28T04:30:28.637Z,23.17
2022-08-28T04:32:55.733Z,23.12
2022-08-28T04:35:22.809Z,23.13
2022-08-28T04:37:49.837Z,23.13
2022-08-28T04:40:16.930Z,23.12
2022-08-28T04:42:44.063Z,23.15
2022-08-28T04:45:11.259Z,23.19
2022-08-28T04:47:39.486Z,23.20
2022-08-28T04:50:08.411Z,23.22
2022-08-28T04:52:35.610Z,23.22
2022-08-28T04:55:02.968Z,23.23
2022-08-28T04:57:33.284Z,23.22
2022-08-28T05:00:06.435Z,23.23
2022-08-28T05:02:33.315Z,23.22
2022-08-28T05:05:01.826Z,23.23
2022-08-28T05:07:28.794Z,23.24
2022-08-28T05:09:55.973Z,23.27
2022-08-28T05:12:23.123Z,23.28
2022-08-28T05:14:50.278Z,23.27
2022-08-28T05:17:17.507Z,23.23
2022-08-28T05:19:44.535Z,23.26
2022-08-28T05:22:12.877Z,23.20
2022-08-28T05:24:40.192Z,23.17
2022-08-28T05:27:08.103Z,23.17
2022-08-28T05:29:35.263Z,23.20
2022-08-28T05:32:02.441Z,23.19
2022-08-28T05:34:29.537Z,23.22
2022-08-28T05:36:56.436Z,23.20
2022-08-28T05:39:24.732Z,23.17
2022-08-28T05:41:51.651Z,23.17
2022-08-28T05:44:18.704Z,23.16
2022-08-28T05:46:47.583Z,23.23
2022-08-28T05:49:16.033Z,23.28
2022-08-28T05:51:43.556Z,23.34
2022-08-28T05:54:11.344Z,23.40
2022-08-28T05:56:43.312Z,23.46
2022-08-28T05:59:11.919Z,23.46
2022-08-28T06:01:43.900Z,23.54
2022-08-28T06:04:13.473Z,23.44
2022-08-28T06:06:42.119Z,23.42
2022-08-28T06:09:12.924Z,23.44
2022-08-28T06:11:44.595Z,23.51
2022-08-28T06:14:16.264Z,23.50
2022-08-28T06:16:47.853Z,23.58
2022-08-28T06:19:15.979Z,23.66
2022-08-28T06:21:42.926Z,23.77
2022-08-28T06:24:11.266Z,23.85
2022-08-28T06:26:38.191Z,23.94
2022-08-28T06:29:12.435Z,24.04
2022-08-28T06:31:40.038Z,24.12
2022-08-28T06:34:07.701Z,24.26
2022-08-28T06:36:38.219Z,24.36
2022-08-28T06:39:09.275Z,24.51
2022-08-28T06:41:36.623Z,24.62
2022-08-28T06:44:03.878Z,24.75
2022-08-28T06:46:34.925Z,24.87
2022-08-28T06:49:05.256Z,24.99
2022-08-28T06:51:32.464Z,25.00
2022-08-28T06:53:59.728Z,25.04
2022-08-28T06:56:27.126Z,25.10
2022-08-28T06:58:57.684Z,25.13
2022-08-28T07:01:29.772Z,25.14
2022-08-28T07:04:01.135Z,25.18
2022-08-28T07:06:31.911Z,25.23
2022-08-28T07:08:58.726Z,25.30
2022-08-28T07:11:28.641Z,25.42
2022-08-28T07:13:57.233Z,25.49
2022-08-28T07:16:28.680Z,25.68
2022-08-28T07:18:56.181Z,25.85
2022-08-28T07:21:25.304Z,26.13
2022-08-28T07:23:52.485Z,26.36
2022-08-28T07:26:22.695Z,26.60
2022-08-28T07:28:50.634Z,26.74
2022-08-28T07:31:21.306Z,26.91
2022-08-28T07:33:52.795Z,27.02
2022-08-28T07:36:28.902Z,27.14
2022-08-28T07:38:58.772Z,27.28
2022-08-28T07:41:29.036Z,27.42
2022-08-28T07:43:56.224Z,27.48
2022-08-28T07:46:23.279Z,27.42
2022-08-28T07:48:50.255Z,27.52
2022-08-28T07:51:18.610Z,27.48
2022-08-28T07:53:46.874Z,27.53
2022-08-28T07:56:13.830Z,27.59
2022-08-28T07:58:40.732Z,27.66
2022-08-28T08:01:07.631Z,27.62
2022-08-28T08:03:39.100Z,27.69
2022-08-28T08:06:07.301Z,27.83
2022-08-28T08:08:36.108Z,27.94
2022-08-28T08:11:08.609Z,28.04
2022-08-28T08:13:39.980Z,28.04
2022-08-28T08:16:11.956Z,28.13
2022-08-28T08:18:39.143Z,28.25
2022-08-28T08:21:09.927Z,28.45
2022-08-28T08:23:37.546Z,28.65
2022-08-28T08:26:09.009Z,28.88
2022-08-28T08:28:38.870Z,29.09
2022-08-28T08:31:10.092Z,29.29
2022-08-28T08:33:42.950Z,29.33
2022-08-28T08:36:13.479Z,29.20
2022-08-28T08:38:41.416Z,29.09
2022-08-28T08:41:22.965Z,29.08
2022-08-28T08:43:57.360Z,29.15
2022-08-28T08:46:33.066Z,29.39
2022-08-28T08:49:04.468Z,29.66
2022-08-28T08:51:42.819Z,29.96
2022-08-28T08:54:14.086Z,30.10
2022-08-28T08:56:44.722Z,30.18
2022-08-28T08:59:17.881Z,29.97
2022-08-28T09:01:56.065Z,30.04
2022-08-28T09:04:38.066Z,30.39
2022-08-28T09:07:13.552Z,30.74
2022-08-28T09:09:45.927Z,31.02
2022-08-28T09:12:19.501Z,31.16
2022-08-28T09:14:56.025Z,31.48
2022-08-28T09:17:31.381Z,31.95
2022-08-28T09:19:58.464Z,32.45
2022-08-28T09:22:25.531Z,32.79
2022-08-28T09:24:52.776Z,33.17
2022-08-28T09:27:28.250Z,33.50
2022-08-28T09:29:59.351Z,33.13
2022-08-28T09:32:38.077Z,32.60
2022-08-28T09:35:13.971Z,32.15
2022-08-28T09:37:43.586Z,31.77
2022-08-28T09:40:22.197Z,31.46
2022-08-28T09:43:04.610Z,31.17
2022-08-28T09:45:31.713Z,30.96
2022-08-28T09:48:00.265Z,30.76
2022-08-28T09:50:33.782Z,30.62
2022-08-28T09:53:20.246Z,31.07
2022-08-28T09:55:59.721Z,31.71
2022-08-28T09:58:36.177Z,32.36
2022-08-28T10:01:18.363Z,33.07
2022-08-28T10:04:00.774Z,33.58
2022-08-28T10:06:33.918Z,33.38
2022-08-28T10:09:21.833Z,33.03
2022-08-28T10:12:00.421Z,32.52
2022-08-28T10:14:48.695Z,32.02
2022-08-28T10:17:30.140Z,31.61
2022-08-28T10:20:10.107Z,31.26
2022-08-28T10:22:47.793Z,31.10
2022-08-28T10:25:26.187Z,31.37
2022-08-28T10:28:18.968Z,31.94
2022-08-28T10:30:59.483Z,32.58
2022-08-28T10:33:44.757Z,33.35
2022-08-28T10:36:33.391Z,33.71
2022-08-28T10:39:18.958Z,33.47
2022-08-28T10:41:51.946Z,33.02
2022-08-28T10:44:26.586Z,32.58
2022-08-28T10:46:58.166Z,32.09
2022-08-28T10:49:31.729Z,31.85
2022-08-28T10:52:10.372Z,31.81
2022-08-28T10:54:44.943Z,31.91
2022-08-28T10:57:29.517Z,31.99
2022-08-28T10:59:58.465Z,32.02
2022-08-28T11:02:30.107Z,32.24
2022-08-28T11:04:58.776Z,32.32
2022-08-28T11:07:33.554Z,32.11
2022-08-28T11:10:40.340Z,31.73
2022-08-28T11:13:09.759Z,31.34
2022-08-28T11:15:52.315Z,31.04
2022-08-28T11:19:06.866Z,30.85
2022-08-28T11:21:44.324Z,30.86
2022-08-28T11:24:31.596Z,30.92
2022-08-28T11:27:13.697Z,30.96
2022-08-28T11:30:17.960Z,30.96
2022-08-28T11:33:21.551Z,31.12
2022-08-28T11:35:51.677Z,31.19
2022-08-28T11:39:10.254Z,31.51
2022-08-28T11:41:40.160Z,31.54
2022-08-28T11:44:44.147Z,31.67
2022-08-28T11:47:49.487Z,31.63
2022-08-28T11:50:27.080Z,31.66
2022-08-28T11:53:43.315Z,31.80
2022-08-28T11:56:40.947Z,32.01
2022-08-28T11:59:35.049Z,32.09
2022-08-28T12:02:47.255Z,32.24
2022-08-28T12:05:46.806Z,32.35
2022-08-28T12:09:10.476Z,32.43
2022-08-28T12:11:58.971Z,32.33
2022-08-28T12:15:05.011Z,32.14
2022-08-28T12:18:00.337Z,32.07
2022-08-28T12:21:04.127Z,31.98
2022-08-28T12:23:42.538Z,31.87
2022-08-28T12:26:21.335Z,32.17
2022-08-28T12:28:54.762Z,32.24
2022-08-28T12:31:56.186Z,32.53
2022-08-28T12:34:36.419Z,32.46
2022-08-28T12:37:07.542Z,32.52
2022-08-28T12:39:34.434Z,32.58
2022-08-28T12:42:02.796Z,32.53
2022-08-28T12:44:32.635Z,32.36
2022-08-28T12:47:00.089Z,32.31
2022-08-28T12:49:35.479Z,32.19
2022-08-28T12:52:16.656Z,32.12
2022-08-28T12:54:45.280Z,32.12
2022-08-28T12:57:15.939Z,32.22
2022-08-28T12:59:47.100Z,32.43
2022-08-28T13:02:27.053Z,32.62
2022-08-28T13:04:58.750Z,32.63
2022-08-28T13:07:30.960Z,32.66
2022-08-28T13:10:03.185Z,32.53
2022-08-28T13:12:37.854Z,32.46
2022-08-28T13:15:46.337Z,32.17
2022-08-28T13:18:47.366Z,31.97
2022-08-28T13:21:44.214Z,31.87
2022-08-28T13:24:48.199Z,31.91
2022-08-28T13:27:24.276Z,31.95
2022-08-28T13:30:06.425Z,31.91
2022-08-28T13:32:38.153Z,31.85
2022-08-28T13:38:25.129Z,31.77
2022-08-28T13:40:58.678Z,31.64
2022-08-28T13:43:42.492Z,31.58
2022-08-28T13:46:09.827Z,31.56
2022-08-28T13:48:38.108Z,31.60
2022-08-28T13:51:10.679Z,31.64
2022-08-28T13:53:38.960Z,31.51
2022-08-28T13:56:06.743Z,31.44
2022-08-28T13:58:33.652Z,31.36
2022-08-28T14:01:01.178Z,31.12
2022-08-28T14:03:56.043Z,30.95
2022-08-28T14:06:23.001Z,30.90
2022-08-28T14:08:58.605Z,30.69
2022-08-28T14:11:27.447Z,30.62
2022-08-28T14:13:55.685Z,30.62
2022-08-28T14:16:48.820Z,30.62
2022-08-28T14:19:17.408Z,30.59
2022-08-28T14:21:44.646Z,30.49
2022-08-28T14:24:11.906Z,30.28
2022-08-28T14:26:39.839Z,30.14
2022-08-28T14:29:10.169Z,29.98
2022-08-28T14:31:37.543Z,29.98
2022-08-28T14:34:05.095Z,29.88
2022-08-28T14:36:34.586Z,29.87
2022-08-28T14:39:06.382Z,29.90
2022-08-28T14:41:34.958Z,29.87
2022-08-28T14:44:03.437Z,29.86
2022-08-28T14:46:34.236Z,29.74
2022-08-28T14:49:06.265Z,29.80
2022-08-28T14:51:37.886Z,30.00
2022-08-28T14:54:05.859Z,30.14
2022-08-28T14:56:33.235Z,30.34
2022-08-28T14:59:02.954Z,30.51
2022-08-28T15:01:40.307Z,30.59
2022-08-28T15:04:11.546Z,30.55
2022-08-28T15:06:40.792Z,30.45
2022-08-28T15:09:08.270Z,30.24
2022-08-28T15:11:35.336Z,30.11
2022-08-28T15:14:02.672Z,30.05
2022-08-28T15:16:33.870Z,29.98
2022-08-28T15:19:02.365Z,29.78
2022-08-28T15:21:34.162Z,29.78
2022-08-28T15:24:04.450Z,29.76
2022-08-28T15:26:32.544Z,29.63
2022-08-28T15:29:01.572Z,29.64
2022-08-28T15:31:29.858Z,29.43
2022-08-28T15:33:57.233Z,29.32
2022-08-28T15:36:24.553Z,29.20
2022-08-28T15:38:51.958Z,29.01
2022-08-28T15:41:21.558Z,28.98
2022-08-28T15:43:48.569Z,28.95
2022-08-28T15:46:15.860Z,28.95
2022-08-28T15:48:42.954Z,28.92
2022-08-28T15:51:09.829Z,28.88
2022-08-28T15:53:38.338Z,28.74
2022-08-28T15:56:05.655Z,28.69
2022-08-28T15:58:34.259Z,28.67
2022-08-28T16:01:01.312Z,28.64
2022-08-28T16:03:53.182Z,28.68
2022-08-28T16:06:22.573Z,28.65
2022-08-28T16:08:49.940Z,28.63
2022-08-28T16:11:18.930Z,28.55
2022-08-28T16:13:47.303Z,28.47
2022-08-28T16:16:14.360Z,28.40
2022-08-28T16:18:42.152Z,28.28
2022-08-28T16:21:09.974Z,28.20
2022-08-28T16:23:38.336Z,28.09
2022-08-28T16:26:08.728Z,28.09
2022-08-28T16:28:38.195Z,28.10
2022-08-28T16:31:08.132Z,28.03
2022-08-28T16:33:46.600Z,27.96
2022-08-28T16:36:16.073Z,27.79
2022-08-28T16:38:47.716Z,27.81
2022-08-28T16:41:19.762Z,27.61
2022-08-28T16:43:48.001Z,27.59
2022-08-28T16:46:19.865Z,27.52
2022-08-28T16:48:47.162Z,27.37
2022-08-28T16:51:15.861Z,27.24
2022-08-28T16:53:43.431Z,27.12
2022-08-28T16:56:11.148Z,27.02
2022-08-28T16:58:40.341Z,27.00
2022-08-28T17:01:13.170Z,27.05
2022-08-28T17:03:42.427Z,27.11
2022-08-28T17:06:13.826Z,27.14
2022-08-28T17:08:41.073Z,27.12
2022-08-28T17:11:08.799Z,27.18
2022-08-28T17:13:36.431Z,27.15
2022-08-28T17:16:04.340Z,27.15
2022-08-28T17:18:31.987Z,27.18
2022-08-28T17:21:00.464Z,27.21
2022-08-28T17:23:27.587Z,27.16
2022-08-28T17:25:54.629Z,27.15
2022-08-28T17:28:22.433Z,27.12
2022-08-28T17:30:49.291Z,27.11
2022-08-28T17:33:19.339Z,27.04
2022-08-28T17:35:46.210Z,27.08
2022-08-28T17:38:22.201Z,27.02
2022-08-28T17:40:48.999Z,26.98
2022-08-28T17:43:15.923Z,26.92
2022-08-28T17:45:43.047Z,26.92
2022-08-28T17:48:09.855Z,26.94
2022-08-28T17:50:36.823Z,26.95
2022-08-28T17:53:04.051Z,26.98
2022-08-28T17:55:32.447Z,26.97
2022-08-28T17:57:59.329Z,26.91
2022-08-28T18:00:26.259Z,26.91
2022-08-28T18:02:53.103Z,26.84
2022-08-28T18:05:21.264Z,26.79
2022-08-28T18:07:48.692Z,26.71
2022-08-28T18:10:15.875Z,26.73
2022-08-28T18:12:44.265Z,26.69
2022-08-28T18:15:11.784Z,26.67
2022-08-28T18:17:40.663Z,26.74
2022-08-28T18:20:10.822Z,26.79
2022-08-28T18:22:38.596Z,26.81
2022-08-28T18:25:06.721Z,26.87
2022-08-28T18:27:33.764Z,26.91
2022-08-28T18:30:02.002Z,26.91
2022-08-28T18:32:29.017Z,26.91
2022-08-28T18:34:55.857Z,26.94
2022-08-28T18:37:22.797Z,26.90
2022-08-28T18:39:51.631Z,26.92
2022-08-28T18:42:18.591Z,26.87
2022-08-28T18:44:45.747Z,26.81
2022-08-28T18:47:13.909Z,26.71
2022-08-28T18:49:40.823Z,26.65
2022-08-28T18:52:07.664Z,26.59
2022-08-28T18:54:34.724Z,26.56
2022-08-28T18:57:04.194Z,26.51
2022-08-28T18:59:31.631Z,26.50
2022-08-28T19:01:58.754Z,26.39
2022-08-28T19:04:27.582Z,26.39
2022-08-28T19:06:54.444Z,26.40
2022-08-28T19:09:21.336Z,26.39
2022-08-28T19:11:48.448Z,26.35
2022-08-28T19:14:15.726Z,26.32
2022-08-28T19:16:42.606Z,26.26
2022-08-28T19:19:09.568Z,26.26
2022-08-28T19:21:39.487Z,26.28
2022-08-28T19:24:06.838Z,26.29
2022-08-28T19:26:33.992Z,26.28
2022-08-28T19:29:00.854Z,26.29
2022-08-28T19:31:52.749Z,26.23
2022-08-28T19:34:19.949Z,26.19
2022-08-28T19:36:48.759Z,26.19
2022-08-28T19:39:17.503Z,26.20
2022-08-28T19:41:44.356Z,26.23
2022-08-28T19:44:11.656Z,26.25
2022-08-28T19:46:39.500Z,26.26
2022-08-28T19:49:07.523Z,26.29
2022-08-28T19:51:36.482Z,26.32
2022-08-28T19:54:05.761Z,26.35
2022-08-28T19:56:34.244Z,26.37
2022-08-28T19:59:04.782Z,26.37
2022-08-28T20:01:35.908Z,26.30
2022-08-28T20:04:04.410Z,26.18
2022-08-28T20:06:33.348Z,26.10
2022-08-28T20:09:01.120Z,26.18
2022-08-28T20:11:30.902Z,26.18
2022-08-28T20:14:03.687Z,26.18
2022-08-28T20:16:34.389Z,26.20
2022-08-28T20:19:01.436Z,26.20
2022-08-28T20:21:36.982Z,26.22
2022-08-28T20:24:07.069Z,26.26
2022-08-28T20:26:35.689Z,26.29
2022-08-28T20:29:03.822Z,26.29
2022-08-28T20:31:30.877Z,26.28
2022-08-28T20:33:58.052Z,26.25
2022-08-28T20:36:25.221Z,26.23
2022-08-28T20:38:52.566Z,26.25
2022-08-28T20:41:21.980Z,26.22
2022-08-28T20:43:50.356Z,26.16
2022-08-28T20:46:17.708Z,26.13
2022-08-28T20:48:45.177Z,26.10
2022-08-28T20:51:12.850Z,26.08
2022-08-28T20:53:40.206Z,26.06
2022-08-28T20:56:10.129Z,26.02
2022-08-28T20:58:37.483Z,26.02
2022-08-28T21:01:06.183Z,26.00
2022-08-28T21:03:39.059Z,26.06
2022-08-28T21:06:06.648Z,26.10
2022-08-28T21:08:33.467Z,26.13
2022-08-28T21:11:00.620Z,26.16
2022-08-28T21:13:27.477Z,26.18
2022-08-28T21:15:54.424Z,26.13
2022-08-28T21:18:22.821Z,26.15
2022-08-28T21:20:50.670Z,26.08
2022-08-28T21:23:17.735Z,26.09
2022-08-28T21:25:44.742Z,26.09
2022-08-28T21:28:11.547Z,26.08
2022-08-28T21:30:41.350Z,26.09
2022-08-28T21:33:08.256Z,26.10
2022-08-28T21:35:40.016Z,26.13
2022-08-28T21:38:07.323Z,26.08
2022-08-28T21:40:34.518Z,26.09
2022-08-28T21:43:01.678Z,26.12
2022-08-28T21:45:28.897Z,26.12
2022-08-28T21:47:57.826Z,26.03
2022-08-28T21:50:25.099Z,26.09
2022-08-28T21:52:53.925Z,26.06
2022-08-28T21:55:21.205Z,26.06
2022-08-28T21:57:48.758Z,26.10
2022-08-28T22:00:19.305Z,26.13
2022-08-28T22:02:46.898Z,26.13
2022-08-28T22:05:14.927Z,26.16
2022-08-28T22:07:41.895Z,26.20
2022-08-28T22:10:10.838Z,26.26
2022-08-28T22:12:37.826Z,26.25
2022-08-28T22:15:06.025Z,26.30
2022-08-28T22:17:32.949Z,26.29
2022-08-28T22:20:00.037Z,26.32
2022-08-28T22:22:26.954Z,26.30
2022-08-28T22:24:54.108Z,26.33
2022-08-28T22:27:22.458Z,26.36
2022-08-28T22:29:49.725Z,26.37
2022-08-28T22:32:17.296Z,26.33
2022-08-28T22:34:45.844Z,26.35
2022-08-28T22:37:13.639Z,26.39
2022-08-28T22:39:42.701Z,26.39
2022-08-28T22:42:10.590Z,26.36
2022-08-28T22:44:39.650Z,26.35
2022-08-28T22:47:06.928Z,26.33
2022-08-28T22:49:34.268Z,26.33
2022-08-28T22:52:03.609Z,26.37
2022-08-28T22:54:32.737Z,26.41
2022-08-28T22:57:00.343Z,26.39
2022-08-28T22:59:27.221Z,26.37
2022-08-28T23:01:55.537Z,26.36
2022-08-28T23:04:23.547Z,26.36
2022-08-28T23:06:50.621Z,26.37
2022-08-28T23:09:17.669Z,26.40
2022-08-28T23:11:44.537Z,26.36
2022-08-28T23:14:11.533Z,26.32
2022-08-28T23:16:39.066Z,26.32
2022-08-28T23:19:08.859Z,26.32
2022-08-28T23:21:39.208Z,26.33
2022-08-28T23:24:10.514Z,26.30
2022-08-28T23:26:37.382Z,26.33
2022-08-28T23:29:04.483Z,26.30
2022-08-28T23:31:31.500Z,26.32
2022-08-28T23:33:58.516Z,26.29
2022-08-28T23:36:27.217Z,26.28
2022-08-28T23:38:54.748Z,26.25
2022-08-28T23:41:21.696Z,26.28
2022-08-28T23:43:49.217Z,26.26
2022-08-28T23:46:17.948Z,26.30
2022-08-28T23:48:46.119Z,26.33
2022-08-28T23:51:17.547Z,26.39
2022-08-28T23:53:46.543Z,26.41
2022-08-28T23:56:14.801Z,26.44
2022-08-28T23:58:43.101Z,26.47
